Hovedside
METAR-TAF:

METAR-TAF

Lufthavner :

Trollhättan-Vänersborg, Sverige

breddegrad: 58-19N, lengdegrad: 012-21E, høyde over havet: 41 m

Gjeldene værobservasjon

Denne rapporten ble laget for 26 minutter siden, klokken 18:20 UTC
Vind 8 kt fra Øst-nordøst
Temperatur 12°C
Luftfuktighet 94%
Trykk 1023 hPa
Sikt: 9000 m
Brutte skyer i en høyde av 1000 ft
Brutte skyer i en høyde av 3000 ft
lett regn, dis

METAR: ESGT 221820Z 06008KT 9000 -RA BR BKN010 BKN030 12/11 Q1023

Tid: 20:46 (18:46 UTC)

Varsel

Denne rapporten ble laget for 2 timer og 28 minutter siden, klokken 16:18 UTC
Varsel gyldig fra 22. klokken 16 UTC til 22. klokken 19 UTC
Vind 6 kt fra Nordøst
Sikt: 7000 m
Brutte skyer i en høyde av 1000 ft
lett regn, dis
Midlertidig
fra 22. klokken 16 UTC til 22. klokken 19 UTC
Brutte skyer i en høyde av 800 ft
regn

TAF: ESGT 221618Z 2216/2219 05006KT 7000 -RA BR BKN010 TEMPO 2216/2219 RA BKN008

Værobservasjoner og værvarsel for over 4000 flyplasser (METAR- og TAF-rapporter).

Tilgjengelige stasjoner er representert av de røde og gule prikkene på kartet.

Hold musepekeren over prikken for å se navnet på stasjonen.

Klikk så for å se værobservasjoner og -varsler.

For å forandre kartet kan du klikke på den grønne knappen med svart kryss for å zoome inn, på den grønne knappen med strek for å zoome ut, eller på de grønne pilene for å se tilstøtende kart.


METAR-TAF: